Time;durP1;ratioP1;P1;durP2;ratioP2;P2;SDS_P1;SDS_P2;PMS_P1;PMS_P2;Temp;Humidity;BMP_temperature;BMP_pressure;BME280_temperature;BME280_humidity;BME280_pressure;Samples;Min_cycle;Max_cycle;Signal;HPM_P1;HPM_P2
2021/05/12 00:01:09;;;;;;;15.55;11.00;;;12.30;99.10;;;;;;5056186;28;20084;-71
2021/05/12 00:03:35;;;;;;;16.20;11.45;;;12.30;99.10;;;;;;5056042;28;20033;-71
2021/05/12 00:06:01;;;;;;;19.13;12.25;;;12.30;99.20;;;;;;5036818;28;20044;-72
2021/05/12 00:08:27;;;;;;;16.02;10.73;;;12.30;99.10;;;;;;5037683;28;20048;-71
2021/05/12 00:10:53;;;;;;;14.43;10.70;;;12.20;99.10;;;;;;5055545;28;20041;-71
2021/05/12 00:13:18;;;;;;;15.02;10.73;;;12.20;99.10;;;;;;5055554;28;20562;-71
2021/05/12 00:15:44;;;;;;;13.88;9.52;;;12.20;99.10;;;;;;5054939;28;20044;-71
2021/05/12 00:18:14;;;;;;;13.38;9.63;;;12.20;99.10;;;;;;5055156;28;20450;-71
2021/05/12 00:20:41;;;;;;;16.00;10.30;;;12.20;99.10;;;;;;5055727;28;20123;-72
2021/05/12 00:23:11;;;;;;;15.13;10.30;;;12.10;99.10;;;;;;5055293;28;20154;-72
2021/05/12 00:25:36;;;;;;;12.52;9.27;;;12.20;99.10;;;;;;5054922;28;20037;-72
2021/05/12 00:28:02;;;;;;;11.57;8.63;;;12.20;99.10;;;;;;5037865;28;20044;-71
2021/05/12 00:30:28;;;;;;;14.02;9.45;;;12.20;99.00;;;;;;5055691;28;20466;-71
2021/05/12 00:32:54;;;;;;;14.38;9.70;;;12.20;99.00;;;;;;5054967;28;20043;-71
2021/05/12 00:35:21;;;;;;;16.25;10.07;;;12.00;99.10;;;;;;5054669;28;20395;-71
2021/05/12 00:37:46;;;;;;;15.15;10.10;;;12.00;99.20;;;;;;5055303;28;20037;-72
2021/05/12 00:40:17;;;;;;;13.57;9.50;;;12.00;99.30;;;;;;5054987;28;20124;-71
2021/05/12 00:42:43;;;;;;;13.57;9.82;;;12.00;99.20;;;;;;5055335;28;20037;-72
2021/05/12 00:45:12;;;;;;;13.13;9.35;;;12.00;99.20;;;;;;5054886;28;20107;-72
2021/05/12 00:47:38;;;;;;;13.55;9.65;;;12.00;99.10;;;;;;5054665;28;20048;-72
2021/05/12 00:50:05;;;;;;;13.98;9.65;;;12.00;99.10;;;;;;5054562;28;20044;-72
2021/05/12 00:52:31;;;;;;;16.23;9.45;;;12.00;99.00;;;;;;5054781;28;20064;-72
2021/05/12 00:54:57;;;;;;;20.15;11.45;;;12.00;99.00;;;;;;5054643;28;20493;-71
2021/05/12 00:57:23;;;;;;;15.40;10.45;;;12.00;99.00;;;;;;5054588;28;20167;-71
2021/05/12 00:59:53;;;;;;;12.48;9.82;;;12.00;99.00;;;;;;5055195;28;20535;-71
2021/05/12 01:02:19;;;;;;;14.80;10.07;;;12.10;99.00;;;;;;5036777;28;20036;-72
2021/05/12 01:04:45;;;;;;;13.32;9.65;;;12.10;99.00;;;;;;5054233;28;20037;-72
2021/05/12 01:07:11;;;;;;;17.48;11.35;;;12.10;98.90;;;;;;5054159;28;20115;-72
2021/05/12 01:09:37;;;;;;;17.00;10.40;;;12.10;98.90;;;;;;5054325;28;20115;-71
2021/05/12 01:12:04;;;;;;;13.90;9.43;;;12.10;98.90;;;;;;5054340;28;20117;-71
2021/05/12 01:14:30;;;;;;;16.80;10.63;;;12.10;98.90;;;;;;5053846;28;20039;-72
2021/05/12 01:16:57;;;;;;;19.05;11.30;;;12.20;98.90;;;;;;5053137;28;20099;-71
2021/05/12 01:19:23;;;;;;;16.63;11.02;;;12.20;99.10;;;;;;5054356;28;20373;-71
2021/05/12 01:21:50;;;;;;;14.23;10.43;;;12.20;98.90;;;;;;5054169;28;20547;-72
2021/05/12 01:24:15;;;;;;;17.25;10.25;;;12.20;98.90;;;;;;5054516;28;20059;-72
2021/05/12 01:26:43;;;;;;;18.85;11.60;;;12.10;98.90;;;;;;5053767;28;20045;-72
2021/05/12 01:29:09;;;;;;;16.83;12.43;;;12.10;98.80;;;;;;5054590;28;20048;-72
2021/05/12 01:31:40;;;;;;;14.40;9.82;;;12.10;98.80;;;;;;5053916;28;20399;-72
2021/05/12 01:34:10;;;;;;;21.27;12.35;;;12.10;98.80;;;;;;5053962;28;20033;-71
2021/05/12 01:36:37;;;;;;;16.25;10.05;;;12.10;98.80;;;;;;5053846;28;20431;-72
2021/05/12 01:39:04;;;;;;;18.83;11.48;;;12.10;98.90;;;;;;5053805;28;20112;-72
2021/05/12 01:41:30;;;;;;;18.48;12.23;;;12.10;98.80;;;;;;5053877;28;20112;-72
2021/05/12 01:43:56;;;;;;;22.13;12.50;;;12.20;98.80;;;;;;5054229;28;20091;-72
2021/05/12 01:46:22;;;;;;;18.98;10.85;;;12.10;98.80;;;;;;5053541;28;20064;-72
2021/05/12 01:48:48;;;;;;;18.77;11.80;;;12.10;98.80;;;;;;5053517;28;20412;-72
2021/05/12 01:51:15;;;;;;;16.77;10.73;;;12.10;98.80;;;;;;5053989;28;20041;-71
2021/05/12 01:53:42;;;;;;;17.40;11.70;;;12.10;98.80;;;;;;5054219;28;20523;-71
2021/05/12 01:56:08;;;;;;;14.55;10.35;;;12.20;98.90;;;;;;5053678;28;20120;-72
2021/05/12 01:58:35;;;;;;;16.05;11.63;;;12.10;98.80;;;;;;5053575;28;20385;-71
2021/05/12 02:01:01;;;;;;;21.73;11.43;;;12.10;99.10;;;;;;5053495;28;20037;-71
2021/05/12 02:03:27;;;;;;;21.65;12.48;;;12.10;99.10;;;;;;5053777;28;20477;-71
2021/05/12 02:05:54;;;;;;;19.65;11.75;;;12.10;98.80;;;;;;5053512;28;20044;-71
2021/05/12 02:08:23;;;;;;;19.35;13.50;;;12.10;98.80;;;;;;5053960;28;20087;-71
2021/05/12 02:10:52;;;;;;;19.85;12.23;;;12.10;98.90;;;;;;5053609;28;20067;-72
2021/05/12 02:13:18;;;;;;;15.73;11.45;;;12.10;98.90;;;;;;5053791;28;20091;-71
2021/05/12 02:15:44;;;;;;;13.68;10.45;;;12.20;98.90;;;;;;5053108;28;20049;-71
2021/05/12 02:18:11;;;;;;;16.25;10.85;;;12.10;98.90;;;;;;5053579;28;20045;-71
2021/05/12 02:20:38;;;;;;;17.20;10.85;;;12.10;98.90;;;;;;5053319;28;20033;-71
2021/05/12 02:23:07;;;;;;;14.55;10.52;;;12.10;98.90;;;;;;5053870;28;20037;-71
2021/05/12 02:25:33;;;;;;;14.38;9.98;;;12.20;98.90;;;;;;5053118;28;20039;-72
2021/05/12 02:27:59;;;;;;;18.48;11.43;;;12.10;98.90;;;;;;5052838;28;20045;-72
2021/05/12 02:30:26;;;;;;;17.02;11.25;;;12.10;98.90;;;;;;5053192;28;20037;-71
2021/05/12 02:32:53;;;;;;;15.52;10.82;;;12.10;98.90;;;;;;5053485;28;20457;-71
2021/05/12 02:35:19;;;;;;;18.50;11.38;;;12.20;99.00;;;;;;5053069;28;20044;-72
2021/05/12 02:37:46;;;;;;;17.40;11.45;;;12.10;99.00;;;;;;5053032;28;20045;-72
2021/05/12 02:40:14;;;;;;;19.42;12.23;;;12.10;99.10;;;;;;5053891;28;20136;-72
2021/05/12 02:42:40;;;;;;;19.23;13.27;;;12.10;99.10;;;;;;5052966;28;20037;-71
2021/05/12 02:45:07;;;;;;;18.65;13.48;;;12.10;99.10;;;;;;5052790;28;20033;-72
2021/05/12 02:47:33;;;;;;;23.13;13.93;;;12.10;99.10;;;;;;5052909;28;20043;-72
2021/05/12 02:50:00;;;;;;;25.38;16.23;;;12.10;99.20;;;;;;5052973;28;20087;-72
2021/05/12 02:52:25;;;;;;;25.27;16.35;;;12.10;99.20;;;;;;5053486;28;20090;-72
2021/05/12 02:54:51;;;;;;;27.73;17.35;;;12.10;99.20;;;;;;5052868;28;20037;-71
2021/05/12 02:57:18;;;;;;;38.70;20.55;;;12.10;99.20;;;;;;5052748;28;20083;-72
2021/05/12 02:59:44;;;;;;;35.85;20.80;;;12.10;99.30;;;;;;5052915;28;20072;-72
2021/05/12 03:02:10;;;;;;;36.15;21.02;;;12.10;99.30;;;;;;5052855;28;20068;-71
2021/05/12 03:04:35;;;;;;;34.05;20.98;;;12.10;99.30;;;;;;5053029;28;20044;-72
2021/05/12 03:07:01;;;;;;;39.85;22.05;;;12.10;99.40;;;;;;5052518;28;20144;-72
2021/05/12 03:09:27;;;;;;;39.03;21.25;;;12.10;99.50;;;;;;5052748;28;20481;-72
2021/05/12 03:11:53;;;;;;;39.25;22.70;;;12.10;99.50;;;;;;5052802;28;20087;-72
2021/05/12 03:14:19;;;;;;;38.05;22.10;;;12.10;99.50;;;;;;5052530;28;20040;-72
2021/05/12 03:16:46;;;;;;;40.10;23.00;;;12.10;99.60;;;;;;5052157;28;20508;-71
2021/05/12 03:19:12;;;;;;;42.97;23.10;;;12.10;99.60;;;;;;5053213;28;20056;-72
2021/05/12 03:21:38;;;;;;;38.53;22.95;;;12.10;99.60;;;;;;5053250;28;20373;-72
2021/05/12 03:24:05;;;;;;;43.47;24.08;;;12.10;99.70;;;;;;5053126;28;20041;-72
2021/05/12 03:26:31;;;;;;;42.08;24.30;;;12.10;99.70;;;;;;5052227;28;20116;-72
2021/05/12 03:28:57;;;;;;;54.83;26.55;;;12.10;99.70;;;;;;5052523;28;20503;-71
2021/05/12 03:31:23;;;;;;;43.92;24.45;;;12.00;99.70;;;;;;5052473;28;20041;-72
2021/05/12 03:33:50;;;;;;;52.97;26.27;;;12.00;99.80;;;;;;5052385;28;20045;-71
2021/05/12 03:36:16;;;;;;;50.45;27.77;;;12.00;99.80;;;;;;5051861;28;20045;-72
2021/05/12 03:38:42;;;;;;;47.75;26.30;;;12.00;99.90;;;;;;5052476;28;20045;-72
2021/05/12 03:41:08;;;;;;;46.58;24.75;;;12.00;99.80;;;;;;5054370;28;20037;-71
2021/05/12 03:43:34;;;;;;;44.28;24.55;;;12.00;99.90;;;;;;5055970;28;20374;-72
2021/05/12 03:46:02;;;;;;;39.05;23.02;;;12.00;99.90;;;;;;5056040;28;20469;-72
2021/05/12 03:48:29;;;;;;;47.78;24.58;;;12.00;99.90;;;;;;5055988;28;20195;-71
2021/05/12 03:50:54;;;;;;;42.78;23.08;;;12.00;99.90;;;;;;5055639;28;20044;-71
2021/05/12 03:53:21;;;;;;;41.45;22.73;;;12.10;99.90;;;;;;5056346;28;20378;-72
2021/05/12 03:55:46;;;;;;;47.63;24.00;;;12.10;99.90;;;;;;5055560;28;20479;-71
2021/05/12 03:58:12;;;;;;;43.88;22.98;;;12.10;99.90;;;;;;5055747;28;20041;-72
2021/05/12 04:00:39;;;;;;;47.50;23.25;;;12.00;99.90;;;;;;5056299;28;20052;-71
2021/05/12 04:03:04;;;;;;;44.97;22.98;;;12.00;99.90;;;;;;5056244;28;20432;-71
2021/05/12 04:05:30;;;;;;;38.80;21.15;;;12.00;99.90;;;;;;5055454;28;20037;-72
2021/05/12 04:07:56;;;;;;;37.72;21.77;;;12.00;99.90;;;;;;5055594;28;20446;-71
2021/05/12 04:10:22;;;;;;;40.25;22.90;;;12.00;99.90;;;;;;5055735;28;20039;-71
2021/05/12 04:12:48;;;;;;;36.17;21.70;;;12.00;99.90;;;;;;5055442;28;20048;-72
2021/05/12 04:15:15;;;;;;;35.03;20.80;;;12.00;99.90;;;;;;5055022;28;20037;-72
2021/05/12 04:17:41;;;;;;;36.83;19.85;;;12.00;99.90;;;;;;5055872;28;20041;-72
2021/05/12 04:20:10;;;;;;;38.53;21.48;;;12.00;99.90;;;;;;5055258;28;20041;-72
2021/05/12 04:22:38;;;;;;;38.85;21.17;;;12.00;99.90;;;;;;5055302;28;20179;-72
2021/05/12 04:25:06;;;;;;;44.90;22.95;;;12.00;99.90;;;;;;5054909;28;20040;-72
2021/05/12 04:27:32;;;;;;;35.20;20.23;;;12.00;99.90;;;;;;5055624;28;20063;-72
2021/05/12 04:29:58;;;;;;;36.55;21.75;;;12.10;99.90;;;;;;5055277;28;20441;-72
2021/05/12 04:32:24;;;;;;;38.88;20.90;;;12.10;99.90;;;;;;5055053;28;20155;-72
2021/05/12 04:34:50;;;;;;;35.65;21.08;;;12.10;99.90;;;;;;5054748;28;20119;-72
2021/05/12 04:37:15;;;;;;;38.45;21.25;;;12.10;99.90;;;;;;5054844;28;20117;-71
2021/05/12 04:39:41;;;;;;;34.25;21.38;;;12.10;99.90;;;;;;5055290;28;20036;-72
2021/05/12 04:42:07;;;;;;;36.97;20.70;;;12.10;99.90;;;;;;5054893;28;20033;-71
2021/05/12 04:44:33;;;;;;;40.75;21.58;;;12.10;99.90;;;;;;5054645;28;20037;-72
2021/05/12 04:46:58;;;;;;;40.35;21.65;;;12.10;99.90;;;;;;5054642;28;20496;-72
2021/05/12 04:49:25;;;;;;;33.45;20.20;;;12.10;99.90;;;;;;5037400;28;20116;-72
2021/05/12 04:51:50;;;;;;;40.58;21.40;;;12.10;99.90;;;;;;5054446;28;20041;-71
2021/05/12 04:54:16;;;;;;;43.58;22.13;;;12.20;99.90;;;;;;5054957;28;20041;-74
2021/05/12 04:56:42;;;;;;;37.33;21.33;;;12.20;99.90;;;;;;5054053;28;20041;-72
2021/05/12 04:59:08;;;;;;;37.33;21.40;;;12.20;99.90;;;;;;5055208;28;20458;-71
2021/05/12 05:01:35;;;;;;;42.42;21.85;;;12.20;99.90;;;;;;5054412;28;20076;-72
2021/05/12 05:04:01;;;;;;;32.65;20.02;;;12.30;99.90;;;;;;5054483;28;20071;-72
2021/05/12 05:06:27;;;;;;;37.50;20.75;;;12.20;99.90;;;;;;5054247;28;20043;-72
2021/05/12 05:08:53;;;;;;;32.17;19.90;;;12.20;99.90;;;;;;5054437;28;20123;-71
2021/05/12 05:11:19;;;;;;;35.58;21.33;;;12.20;99.90;;;;;;5054778;28;20068;-72
2021/05/12 05:13:45;;;;;;;36.22;19.95;;;12.20;99.90;;;;;;5054583;28;20044;-72
2021/05/12 05:16:11;;;;;;;33.65;20.45;;;12.30;99.90;;;;;;5053845;28;20465;-72
2021/05/12 05:18:38;;;;;;;33.67;20.02;;;12.30;99.90;;;;;;5054312;28;20049;-72
2021/05/12 05:21:05;;;;;;;33.03;18.98;;;12.50;99.90;;;;;;5054153;28;20540;-72
2021/05/12 05:23:37;;;;;;;32.35;19.48;;;12.70;99.60;;;;;;5054686;28;20465;-72
2021/05/12 05:26:03;;;;;;;30.98;19.73;;;12.90;99.30;;;;;;5053884;28;20037;-72
2021/05/12 05:28:30;;;;;;;28.77;16.55;;;13.00;98.90;;;;;;5054657;28;20166;-72
2021/05/12 05:30:55;;;;;;;27.15;17.63;;;13.10;98.60;;;;;;5054533;28;20498;-72
2021/05/12 05:33:21;;;;;;;27.95;16.20;;;13.20;98.30;;;;;;5054464;28;20116;-72
2021/05/12 05:35:47;;;;;;;24.48;17.70;;;13.20;98.10;;;;;;5053566;28;20037;-72
2021/05/12 05:38:13;;;;;;;20.60;14.93;;;13.30;98.00;;;;;;5054203;28;20466;-72
2021/05/12 05:40:39;;;;;;;23.30;17.35;;;13.30;97.90;;;;;;5053678;28;20041;-71
2021/05/12 05:43:07;;;;;;;21.92;15.90;;;13.40;98.00;;;;;;5054203;28;20033;-72
2021/05/12 05:45:34;;;;;;;21.85;15.68;;;13.50;97.90;;;;;;5053447;28;20047;-72
2021/05/12 05:48:00;;;;;;;29.23;17.73;;;13.50;97.80;;;;;;5053824;28;20039;-72
2021/05/12 05:50:26;;;;;;;23.88;16.50;;;13.60;97.70;;;;;;5053769;28;20041;-72
2021/05/12 05:52:55;;;;;;;24.48;17.52;;;13.60;97.70;;;;;;5053991;28;20060;-71
2021/05/12 05:55:21;;;;;;;24.75;17.42;;;13.50;97.60;;;;;;5053223;28;20044;-72
2021/05/12 05:57:48;;;;;;;25.15;17.17;;;13.50;97.70;;;;;;5053320;28;20117;-72
2021/05/12 06:00:17;;;;;;;27.33;17.52;;;13.40;97.60;;;;;;5053541;28;20041;-72
2021/05/12 06:02:44;;;;;;;23.55;17.65;;;13.50;97.80;;;;;;5053017;28;20045;-72
2021/05/12 06:05:10;;;;;;;23.27;16.90;;;13.50;97.60;;;;;;5053039;28;20043;-72
2021/05/12 06:07:38;;;;;;;20.52;15.10;;;13.70;97.40;;;;;;5053427;28;20036;-72
2021/05/12 06:10:05;;;;;;;17.35;13.70;;;14.00;96.50;;;;;;5053382;28;20048;-72
2021/05/12 06:12:30;;;;;;;17.27;13.07;;;14.50;96.00;;;;;;5054128;28;20076;-72
2021/05/12 06:14:56;;;;;;;16.42;12.23;;;14.90;95.20;;;;;;5053015;28;20075;-72
2021/05/12 06:17:22;;;;;;;17.13;11.27;;;15.10;94.40;;;;;;5053375;28;20041;-72
2021/05/12 06:19:48;;;;;;;16.27;12.50;;;15.40;93.70;;;;;;5053132;28;20115;-72
2021/05/12 06:22:15;;;;;;;14.63;11.57;;;15.80;93.20;;;;;;5053287;28;20043;-72
2021/05/12 06:24:42;;;;;;;15.63;11.18;;;16.00;92.30;;;;;;5053275;28;20059;-72
2021/05/12 06:27:10;;;;;;;13.73;9.52;;;16.30;91.50;;;;;;5053363;28;20037;-72
2021/05/12 06:29:37;;;;;;;16.50;8.88;;;16.30;90.90;;;;;;5053329;28;20469;-72
2021/05/12 06:32:04;;;;;;;11.05;8.70;;;16.50;90.40;;;;;;5053331;28;20037;-72
2021/05/12 06:34:32;;;;;;;8.23;7.05;;;16.30;89.10;;;;;;5052700;28;20041;-72
2021/05/12 06:36:58;;;;;;;8.90;7.53;;;16.10;89.60;;;;;;5052828;28;20131;-72
2021/05/12 06:39:25;;;;;;;13.80;7.50;;;16.00;90.00;;;;;;5052844;28;20508;-72
2021/05/12 06:41:51;;;;;;;10.13;6.43;;;16.00;90.20;;;;;;5052915;28;20147;-72
2021/05/12 06:44:20;;;;;;;9.15;6.15;;;16.40;89.50;;;;;;5035522;28;20069;-72
2021/05/12 06:46:46;;;;;;;6.25;4.95;;;16.60;85.90;;;;;;5052939;28;20040;-72
2021/05/12 06:49:12;;;;;;;10.35;5.85;;;16.50;85.10;;;;;;5052962;28;20397;-71
2021/05/12 06:51:38;;;;;;;10.48;5.68;;;16.60;85.40;;;;;;5052975;28;20481;-71
2021/05/12 06:54:04;;;;;;;7.85;5.22;;;16.60;84.00;;;;;;5053104;28;20404;-71
2021/05/12 06:56:29;;;;;;;11.07;5.85;;;16.60;82.90;;;;;;5052363;28;20071;-71
2021/05/12 06:58:55;;;;;;;7.32;5.32;;;16.50;83.90;;;;;;5052968;28;20044;-71
2021/05/12 07:01:21;;;;;;;9.43;5.80;;;16.40;84.40;;;;;;5053060;28;20457;-70
2021/05/12 07:03:47;;;;;;;11.43;6.03;;;16.50;84.40;;;;;;5053045;28;20547;-71
2021/05/12 07:06:13;;;;;;;10.10;5.22;;;16.90;83.70;;;;;;5052525;28;20045;-71
2021/05/12 07:08:39;;;;;;;10.80;5.45;;;16.70;82.90;;;;;;5053201;28;20499;-72
2021/05/12 07:11:06;;;;;;;8.98;5.88;;;17.00;83.30;;;;;;5035142;28;20037;-72
2021/05/12 07:13:33;;;;;;;8.43;5.55;;;17.40;83.10;;;;;;5052886;28;20489;-70
2021/05/12 07:16:01;;;;;;;9.38;4.03;;;17.50;82.50;;;;;;5055940;28;20045;-70
2021/05/12 07:18:26;;;;;;;7.20;4.30;;;17.50;79.60;;;;;;5057221;28;20081;-71
2021/05/12 07:20:53;;;;;;;6.68;3.70;;;17.70;79.90;;;;;;5056906;28;20529;-71
2021/05/12 07:23:21;;;;;;;7.53;3.75;;;17.60;80.40;;;;;;5057038;28;20112;-71
2021/05/12 07:25:48;;;;;;;5.70;3.45;;;17.60;78.80;;;;;;5056138;28;20634;-72
2021/05/12 07:28:14;;;;;;;8.82;3.92;;;17.70;80.00;;;;;;5056433;28;20037;-72
2021/05/12 07:30:42;;;;;;;8.88;2.80;;;17.80;79.10;;;;;;5056153;28;20551;-71
2021/05/12 07:33:07;;;;;;;4.90;2.65;;;17.70;76.80;;;;;;5056872;28;20033;-72
2021/05/12 07:35:35;;;;;;;7.13;3.20;;;17.70;77.40;;;;;;5056056;28;20065;-71
2021/05/12 07:38:08;;;;;;;6.72;2.90;;;17.70;77.50;;;;;;5056216;28;20045;-71
2021/05/12 07:40:35;;;;;;;6.55;2.85;;;17.60;77.00;;;;;;5056011;28;20036;-71
2021/05/12 07:43:04;;;;;;;7.60;3.20;;;18.00;78.00;;;;;;5055997;28;20392;-72
2021/05/12 07:45:30;;;;;;;10.20;3.35;;;18.10;76.80;;;;;;5055704;28;20037;-72
2021/05/12 07:47:55;;;;;;;7.30;2.83;;;18.10;76.60;;;;;;5055834;28;20478;-71
2021/05/12 07:50:21;;;;;;;8.55;3.10;;;18.50;77.60;;;;;;5055892;28;20037;-72
2021/05/12 07:52:47;;;;;;;10.05;3.65;;;18.60;76.30;;;;;;5055850;28;20116;-72
2021/05/12 07:55:13;;;;;;;8.10;3.25;;;18.60;75.20;;;;;;5055743;28;20489;-72
2021/05/12 07:57:39;;;;;;;4.03;2.13;;;18.60;74.40;;;;;;5055591;28;20040;-72
2021/05/12 08:00:07;;;;;;;7.00;1.92;;;18.70;74.20;;;;;;5055661;28;20477;-71
2021/05/12 08:02:34;;;;;;;5.90;1.73;;;18.80;73.40;;;;;;5056168;28;20037;-71
2021/05/12 08:05:00;;;;;;;5.38;1.73;;;18.90;72.70;;;;;;5055402;28;20052;-72
2021/05/12 08:07:46;;;;;;;5.88;1.85;;;19.10;73.20;;;;;;5037928;28;20053;-70
2021/05/12 08:10:32;;;;;;;5.22;1.65;;;19.10;71.80;;;;;;5041175;28;20091;-71
2021/05/12 08:13:00;;;;;;;5.32;1.85;;;18.80;69.30;;;;;;5055107;28;20033;-74
2021/05/12 08:15:29;;;;;;;3.78;1.33;;;19.20;71.60;;;;;;5055208;28;20099;-71
2021/05/12 08:17:54;;;;;;;6.22;1.90;;;19.00;70.70;;;;;;5055380;28;20045;-71
2021/05/12 08:20:23;;;;;;;4.97;1.35;;;18.90;69.90;;;;;;5055538;28;20045;-71
2021/05/12 08:22:55;;;;;;;4.40;1.63;;;19.20;70.50;;;;;;5056016;28;20041;-72
2021/05/12 08:25:21;;;;;;;4.22;1.20;;;19.50;71.00;;;;;;5055141;28;20063;-71
2021/05/12 08:27:47;;;;;;;3.38;0.90;;;19.00;69.90;;;;;;5054390;28;20089;-72
2021/05/12 08:30:13;;;;;;;3.42;1.00;;;18.70;70.60;;;;;;5055151;28;20029;-72
2021/05/12 08:32:40;;;;;;;4.80;1.15;;;18.60;69.70;;;;;;5055013;28;20041;-72
2021/05/12 08:35:26;;;;;;;4.50;1.15;;;18.70;69.00;;;;;;5040305;28;20405;-72
2021/05/12 08:38:07;;;;;;;3.63;1.35;;;18.80;70.00;;;;;;5055172;28;20098;-72
2021/05/12 08:40:34;;;;;;;4.55;1.10;;;19.20;70.20;;;;;;5054866;28;20067;-72
2021/05/12 08:43:03;;;;;;;5.82;1.50;;;18.90;68.90;;;;;;5054902;28;20496;-72
2021/05/12 08:45:30;;;;;;;3.67;1.33;;;18.80;68.60;;;;;;5054502;28;20103;-71
2021/05/12 08:47:57;;;;;;;4.90;1.25;;;18.70;68.80;;;;;;5054722;28;20120;-71
2021/05/12 08:50:25;;;;;;;6.38;1.15;;;19.10;68.90;;;;;;5036967;28;20037;-71
2021/05/12 08:52:52;;;;;;;3.58;1.23;;;19.20;68.70;;;;;;5055256;28;20033;-72
2021/05/12 08:55:19;;;;;;;7.60;1.38;;;19.30;70.10;;;;;;5054339;28;20551;-72
2021/05/12 08:57:44;;;;;;;3.78;1.02;;;19.80;69.30;;;;;;5037332;28;20037;-71
2021/05/12 09:00:11;;;;;;;3.90;1.35;;;20.10;68.40;;;;;;5054927;28;20047;-72
2021/05/12 09:02:37;;;;;;;2.10;0.88;;;20.10;67.60;;;;;;5054709;28;20044;-71
2021/05/12 09:05:08;;;;;;;5.47;0.98;;;20.00;65.60;;;;;;5054647;28;20045;-72
2021/05/12 09:07:34;;;;;;;4.18;1.17;;;20.00;66.10;;;;;;5054957;28;20045;-71
2021/05/12 09:10:01;;;;;;;2.95;1.15;;;20.00;64.40;;;;;;5054930;28;20044;-72
2021/05/12 09:12:47;;;;;;;3.75;1.15;;;19.90;64.00;;;;;;5054437;28;20037;-72
2021/05/12 09:15:17;;;;;;;2.88;1.00;;;19.90;65.60;;;;;;5054202;28;20043;-72
2021/05/12 09:17:48;;;;;;;4.80;1.42;;;20.10;66.30;;;;;;5054105;28;20108;-71
2021/05/12 09:20:20;;;;;;;6.32;1.35;;;20.00;66.70;;;;;;5054304;28;20048;-72
2021/05/12 09:23:01;;;;;;;4.20;1.00;;;19.90;63.90;;;;;;5054406;28;20432;-71
2021/05/12 09:25:29;;;;;;;3.75;0.93;;;20.00;65.30;;;;;;5054225;28;20508;-72
2021/05/12 09:28:18;;;;;;;8.55;1.75;;;19.90;65.10;;;;;;5054518;28;20068;-72
2021/05/12 09:30:46;;;;;;;6.57;1.85;;;19.90;65.00;;;;;;5054155;28;20044;-72
2021/05/12 09:33:30;;;;;;;3.97;1.45;;;19.80;65.00;;;;;;5053943;28;20529;-72
2021/05/12 09:35:57;;;;;;;6.03;1.45;;;19.70;66.20;;;;;;5053629;28;20068;-72
2021/05/12 09:38:25;;;;;;;3.92;0.88;;;19.60;65.10;;;;;;5035740;28;20052;-72
2021/05/12 09:41:00;;;;;;;4.13;1.38;;;19.50;65.70;;;;;;5053947;28;20370;-69
2021/05/12 09:43:28;;;;;;;3.50;0.98;;;19.70;66.30;;;;;;5053745;28;20107;-69
2021/05/12 09:46:13;;;;;;;4.05;1.02;;;19.60;65.90;;;;;;5053560;28;20045;-69
2021/05/12 09:48:39;;;;;;;3.42;1.02;;;19.60;66.10;;;;;;5054280;28;20118;-69
2021/05/12 09:51:18;;;;;;;2.80;1.05;;;19.40;66.20;;;;;;5054325;28;20461;-70
2021/05/12 09:54:08;;;;;;;4.85;1.23;;;19.50;66.50;;;;;;5053694;28;20094;-69
2021/05/12 09:56:48;;;;;;;4.25;0.95;;;19.70;67.20;;;;;;5053168;28;20060;-69
2021/05/12 09:59:25;;;;;;;6.65;0.95;;;20.00;69.10;;;;;;5053447;28;20041;-69
2021/05/12 10:01:53;;;;;;;2.67;1.15;;;20.00;68.40;;;;;;5053480;28;20388;-70
2021/05/12 10:04:27;;;;;;;3.58;1.10;;;20.00;67.30;;;;;;5053334;28;20041;-70
2021/05/12 10:06:58;;;;;;;4.13;0.95;;;20.00;68.10;;;;;;5053772;28;20051;-70
2021/05/12 10:09:26;;;;;;;4.55;1.00;;;19.90;66.60;;;;;;5053919;28;20381;-69
2021/05/12 10:12:01;;;;;;;4.43;1.50;;;19.80;68.40;;;;;;5053364;28;20421;-70
2021/05/12 10:14:26;;;;;;;4.47;1.60;;;19.80;69.10;;;;;;5053457;28;20037;-70
2021/05/12 10:16:52;;;;;;;2.85;0.85;;;19.80;67.90;;;;;;5053497;28;20067;-70
2021/05/12 10:19:19;;;;;;;5.47;2.25;;;19.70;69.30;;;;;;5053092;28;20037;-70
2021/05/12 10:21:46;;;;;;;5.95;1.65;;;19.10;69.60;;;;;;5053145;28;20037;-70
2021/05/12 10:24:12;;;;;;;4.65;1.50;;;18.70;71.50;;;;;;5053744;28;20037;-70
2021/05/12 10:26:43;;;;;;;7.65;1.35;;;18.40;72.50;;;;;;5053230;28;20086;-70
2021/05/12 10:29:15;;;;;;;8.68;1.73;;;18.30;72.60;;;;;;5053667;28;20041;-70
2021/05/12 10:31:41;;;;;;;5.45;1.30;;;18.20;74.10;;;;;;5053358;28;20041;-70
2021/05/12 10:34:07;;;;;;;5.57;1.60;;;18.00;73.30;;;;;;5053002;28;20033;-70
2021/05/12 10:36:33;;;;;;;7.55;1.40;;;17.90;74.40;;;;;;5053123;28;20120;-70
2021/05/12 10:39:04;;;;;;;6.97;2.00;;;18.20;75.30;;;;;;5053157;28;20045;-70
2021/05/12 10:41:43;;;;;;;9.00;1.83;;;18.00;73.40;;;;;;5053387;28;20037;-70
2021/05/12 10:44:22;;;;;;;5.30;1.10;;;18.20;73.40;;;;;;5052986;28;20041;-70
2021/05/12 10:47:07;;;;;;;4.40;1.20;;;18.30;73.60;;;;;;5052941;28;20044;-70
2021/05/12 10:49:33;;;;;;;5.78;1.45;;;18.10;74.10;;;;;;5054170;28;20041;-71
2021/05/12 10:52:09;;;;;;;9.05;1.88;;;17.80;75.10;;;;;;5056927;28;20041;-69
2021/05/12 10:54:46;;;;;;;6.60;1.50;;;18.00;75.20;;;;;;5056726;28;20485;-69
2021/05/12 10:57:45;;;;;;;7.80;1.98;;;18.40;76.20;;;;;;5056661;28;20041;-71
2021/05/12 11:00:12;;;;;;;6.88;1.27;;;18.60;73.90;;;;;;5057244;28;20044;-72
2021/05/12 11:02:50;;;;;;;7.57;2.15;;;18.90;73.30;;;;;;5057072;28;20120;-72
2021/05/12 11:05:16;;;;;;;8.68;2.08;;;19.10;73.10;;;;;;5056639;28;20080;-72
2021/05/12 11:08:16;;;;;;;5.45;1.10;;;19.00;71.80;;;;;;5057088;28;20064;-72
2021/05/12 11:10:57;;;;;;;7.72;1.35;;;18.50;69.00;;;;;;5038376;28;20057;-72
2021/05/12 11:13:26;;;;;;;6.15;1.40;;;18.40;69.80;;;;;;5039145;28;20033;-71
2021/05/12 11:15:56;;;;;;;6.38;1.33;;;18.10;70.80;;;;;;5056206;28;20045;-71
2021/05/12 11:18:34;;;;;;;6.90;1.70;;;18.20;73.20;;;;;;5056692;28;20060;-72
2021/05/12 11:21:41;;;;;;;8.63;2.10;;;18.20;72.10;;;;;;5039109;28;20041;-72
2021/05/12 11:24:11;;;;;;;5.65;1.52;;;18.40;74.90;;;;;;5056318;28;20127;-72
2021/05/12 11:32:05;;;;;;;7.03;1.48;;;18.60;71.90;;;;;;5056220;28;20504;-70
2021/05/12 11:34:31;;;;;;;8.40;1.50;;;18.60;73.00;;;;;;5038302;28;20542;-70
2021/05/12 11:37:25;;;;;;;6.97;1.65;;;18.30;71.80;;;;;;5056229;28;20040;-70
2021/05/12 11:39:53;;;;;;;7.05;1.77;;;18.00;71.90;;;;;;5056196;28;20041;-70
2021/05/12 11:42:29;;;;;;;6.78;1.58;;;18.10;72.80;;;;;;5056268;28;20037;-69
2021/05/12 11:45:13;;;;;;;6.00;1.40;;;18.20;71.10;;;;;;5055989;28;20051;-70
2021/05/12 11:47:40;;;;;;;8.75;1.55;;;18.00;71.10;;;;;;5056569;28;20043;-69
2021/05/12 11:50:27;;;;;;;6.20;1.67;;;17.80;71.50;;;;;;5056070;28;20069;-70
2021/05/12 11:52:53;;;;;;;6.53;1.58;;;18.00;71.20;;;;;;5055733;28;20116;-70
2021/05/12 11:55:23;;;;;;;7.55;1.80;;;17.80;71.30;;;;;;5055588;28;20067;-70
2021/05/12 11:57:51;;;;;;;7.72;1.75;;;17.80;72.00;;;;;;5056416;28;20044;-69
2021/05/12 12:00:20;;;;;;;6.55;1.75;;;17.70;71.20;;;;;;5055991;28;20363;-70
2021/05/12 12:03:00;;;;;;;7.85;2.03;;;17.80;73.00;;;;;;5055353;28;20055;-69
2021/05/12 12:05:36;;;;;;;6.53;1.95;;;18.00;72.60;;;;;;5055534;28;20079;-69
2021/05/12 12:08:16;;;;;;;10.75;1.95;;;18.10;71.70;;;;;;5037828;28;20048;-69
2021/05/12 12:10:43;;;;;;;6.57;1.65;;;17.90;72.90;;;;;;5055876;28;20106;-70
2021/05/12 12:13:15;;;;;;;10.38;2.20;;;17.80;72.40;;;;;;5055094;28;20053;-70
2021/05/12 12:15:43;;;;;;;12.30;3.15;;;17.90;73.60;;;;;;5055219;28;20041;-69
2021/05/12 12:18:09;;;;;;;6.97;1.60;;;18.00;73.60;;;;;;5055309;28;20112;-69
2021/05/12 12:20:36;;;;;;;5.60;1.42;;;18.00;73.50;;;;;;5055080;28;20090;-70
2021/05/12 12:23:02;;;;;;;9.73;2.08;;;17.90;73.00;;;;;;5055108;28;20121;-70
2021/05/12 12:25:41;;;;;;;6.65;1.83;;;17.70;73.30;;;;;;5054644;28;20041;-70
2021/05/12 12:28:07;;;;;;;7.85;2.00;;;17.70;72.40;;;;;;5055717;28;20043;-69
2021/05/12 12:30:33;;;;;;;5.97;1.50;;;17.90;72.30;;;;;;5055530;28;20033;-71
2021/05/12 12:32:58;;;;;;;6.63;1.85;;;17.90;72.60;;;;;;5055515;28;20068;-71
2021/05/12 12:35:24;;;;;;;7.20;1.45;;;18.00;72.10;;;;;;5054679;28;20029;-71
2021/05/12 12:37:50;;;;;;;10.25;1.80;;;18.00;70.50;;;;;;5055046;28;20044;-72
2021/05/12 12:40:16;;;;;;;7.38;1.67;;;18.10;71.20;;;;;;5054920;28;20037;-72
2021/05/12 12:42:48;;;;;;;4.43;1.60;;;18.30;71.70;;;;;;5054842;28;20064;-72
2021/05/12 12:45:29;;;;;;;7.35;1.70;;;18.30;69.40;;;;;;5054797;28;20037;-70
2021/05/12 12:48:07;;;;;;;5.53;1.80;;;18.10;68.50;;;;;;5055148;28;20048;-69